sensor_id;sensor_type;location;lat;lon;timestamp;P1;durP1;ratioP1;P2;durP2;ratioP2
2850;SDS011;1433;49.976;8.342;2023-02-20T00:01:24;7.63;;;6.87;;
2850;SDS011;1433;49.976;8.342;2023-02-20T00:03:51;7.40;;;6.70;;
2850;SDS011;1433;49.976;8.342;2023-02-20T00:06:17;9.07;;;8.27;;
2850;SDS011;1433;49.976;8.342;2023-02-20T00:08:43;12.63;;;8.07;;
2850;SDS011;1433;49.976;8.342;2023-02-20T00:11:09;9.50;;;8.00;;
2850;SDS011;1433;49.976;8.342;2023-02-20T00:13:35;7.20;;;6.60;;
2850;SDS011;1433;49.976;8.342;2023-02-20T00:16:02;7.07;;;6.37;;
2850;SDS011;1433;49.976;8.342;2023-02-20T00:18:28;6.57;;;5.97;;
2850;SDS011;1433;49.976;8.342;2023-02-20T00:20:54;7.73;;;6.33;;
2850;SDS011;1433;49.976;8.342;2023-02-20T00:23:20;7.10;;;5.70;;
2850;SDS011;1433;49.976;8.342;2023-02-20T00:25:47;6.70;;;6.00;;
2850;SDS011;1433;49.976;8.342;2023-02-20T00:28:14;6.80;;;5.80;;
2850;SDS011;1433;49.976;8.342;2023-02-20T00:30:40;7.00;;;6.37;;
2850;SDS011;1433;49.976;8.342;2023-02-20T00:33:06;5.70;;;5.10;;
2850;SDS011;1433;49.976;8.342;2023-02-20T00:35:32;6.80;;;6.10;;
2850;SDS011;1433;49.976;8.342;2023-02-20T00:37:59;5.93;;;5.43;;
2850;SDS011;1433;49.976;8.342;2023-02-20T00:40:25;7.33;;;5.30;;
2850;SDS011;1433;49.976;8.342;2023-02-20T00:42:53;6.37;;;5.63;;
2850;SDS011;1433;49.976;8.342;2023-02-20T00:45:20;6.23;;;5.67;;
2850;SDS011;1433;49.976;8.342;2023-02-20T00:47:46;9.00;;;5.33;;
2850;SDS011;1433;49.976;8.342;2023-02-20T00:50:13;6.43;;;5.20;;
2850;SDS011;1433;49.976;8.342;2023-02-20T00:52:41;7.83;;;5.40;;
2850;SDS011;1433;49.976;8.342;2023-02-20T00:55:07;7.20;;;6.00;;
2850;SDS011;1433;49.976;8.342;2023-02-20T00:57:33;6.10;;;5.50;;
2850;SDS011;1433;49.976;8.342;2023-02-20T00:59:59;4.93;;;4.53;;
2850;SDS011;1433;49.976;8.342;2023-02-20T01:02:25;6.73;;;6.03;;
2850;SDS011;1433;49.976;8.342;2023-02-20T01:04:52;5.90;;;5.40;;
2850;SDS011;1433;49.976;8.342;2023-02-20T01:07:18;10.67;;;7.07;;
2850;SDS011;1433;49.976;8.342;2023-02-20T01:09:44;7.40;;;5.90;;
2850;SDS011;1433;49.976;8.342;2023-02-20T01:12:12;9.60;;;5.97;;
2850;SDS011;1433;49.976;8.342;2023-02-20T01:14:38;8.37;;;7.57;;
2850;SDS011;1433;49.976;8.342;2023-02-20T01:17:06;7.20;;;6.00;;
2850;SDS011;1433;49.976;8.342;2023-02-20T01:19:34;6.70;;;6.10;;
2850;SDS011;1433;49.976;8.342;2023-02-20T01:22:01;8.93;;;6.23;;
2850;SDS011;1433;49.976;8.342;2023-02-20T01:24:29;7.27;;;6.47;;
2850;SDS011;1433;49.976;8.342;2023-02-20T01:26:55;17.60;;;7.67;;
2850;SDS011;1433;49.976;8.342;2023-02-20T01:29:21;15.50;;;7.90;;
2850;SDS011;1433;49.976;8.342;2023-02-20T01:31:50;8.20;;;7.40;;
2850;SDS011;1433;49.976;8.342;2023-02-20T01:34:17;9.03;;;8.13;;
2850;SDS011;1433;49.976;8.342;2023-02-20T01:36:45;7.97;;;7.17;;
2850;SDS011;1433;49.976;8.342;2023-02-20T01:39:20;7.50;;;6.80;;
2850;SDS011;1433;49.976;8.342;2023-02-20T01:41:49;7.03;;;5.83;;
2850;SDS011;1433;49.976;8.342;2023-02-20T01:44:20;8.20;;;7.17;;
2850;SDS011;1433;49.976;8.342;2023-02-20T01:46:49;8.53;;;7.50;;
2850;SDS011;1433;49.976;8.342;2023-02-20T01:49:22;10.57;;;8.50;;
2850;SDS011;1433;49.976;8.342;2023-02-20T01:54:36;9.43;;;8.50;;
2850;SDS011;1433;49.976;8.342;2023-02-20T01:57:05;9.77;;;8.77;;
2850;SDS011;1433;49.976;8.342;2023-02-20T01:59:34;11.90;;;7.93;;
2850;SDS011;1433;49.976;8.342;2023-02-20T02:02:04;9.80;;;8.07;;
2850;SDS011;1433;49.976;8.342;2023-02-20T02:04:32;14.70;;;8.30;;
2850;SDS011;1433;49.976;8.342;2023-02-20T02:07:00;12.03;;;9.27;;
2850;SDS011;1433;49.976;8.342;2023-02-20T02:09:38;10.63;;;8.43;;
2850;SDS011;1433;49.976;8.342;2023-02-20T02:12:06;9.60;;;8.67;;
2850;SDS011;1433;49.976;8.342;2023-02-20T02:14:33;9.63;;;8.20;;
2850;SDS011;1433;49.976;8.342;2023-02-20T02:17:09;9.47;;;8.20;;
2850;SDS011;1433;49.976;8.342;2023-02-20T02:36:28;8.90;;;7.50;;
2850;SDS011;1433;49.976;8.342;2023-02-20T02:49:59;8.53;;;7.73;;
2850;SDS011;1433;49.976;8.342;2023-02-20T02:52:27;10.60;;;8.00;;
2850;SDS011;1433;49.976;8.342;2023-02-20T02:55:08;10.93;;;7.73;;
2850;SDS011;1433;49.976;8.342;2023-02-20T02:57:35;6.57;;;6.03;;
2850;SDS011;1433;49.976;8.342;2023-02-20T03:00:04;7.73;;;7.03;;
2850;SDS011;1433;49.976;8.342;2023-02-20T03:02:32;7.50;;;6.70;;
2850;SDS011;1433;49.976;8.342;2023-02-20T03:05:02;6.90;;;6.20;;
2850;SDS011;1433;49.976;8.342;2023-02-20T03:07:32;10.90;;;7.63;;
2850;SDS011;1433;49.976;8.342;2023-02-20T03:10:03;11.87;;;6.97;;
2850;SDS011;1433;49.976;8.342;2023-02-20T03:12:34;7.43;;;6.60;;
2850;SDS011;1433;49.976;8.342;2023-02-20T03:15:04;7.87;;;7.17;;
2850;SDS011;1433;49.976;8.342;2023-02-20T03:17:55;9.07;;;7.13;;
2850;SDS011;1433;49.976;8.342;2023-02-20T03:20:22;9.73;;;8.43;;
2850;SDS011;1433;49.976;8.342;2023-02-20T03:22:55;7.37;;;6.73;;
2850;SDS011;1433;49.976;8.342;2023-02-20T03:25:40;8.63;;;7.70;;
2850;SDS011;1433;49.976;8.342;2023-02-20T03:30:45;7.90;;;7.00;;
2850;SDS011;1433;49.976;8.342;2023-02-20T03:33:16;6.43;;;5.77;;
2850;SDS011;1433;49.976;8.342;2023-02-20T03:36:08;9.17;;;7.67;;
2850;SDS011;1433;49.976;8.342;2023-02-20T03:38:58;10.10;;;7.37;;
2850;SDS011;1433;49.976;8.342;2023-02-20T03:41:44;8.53;;;6.53;;
2850;SDS011;1433;49.976;8.342;2023-02-20T03:44:32;8.43;;;6.13;;
2850;SDS011;1433;49.976;8.342;2023-02-20T03:47:00;11.83;;;8.30;;
2850;SDS011;1433;49.976;8.342;2023-02-20T03:49:38;8.10;;;6.10;;
2850;SDS011;1433;49.976;8.342;2023-02-20T03:52:21;9.33;;;6.43;;
2850;SDS011;1433;49.976;8.342;2023-02-20T03:54:48;8.23;;;7.30;;
2850;SDS011;1433;49.976;8.342;2023-02-20T03:57:21;14.37;;;8.37;;
2850;SDS011;1433;49.976;8.342;2023-02-20T03:59:49;9.40;;;7.57;;
2850;SDS011;1433;49.976;8.342;2023-02-20T04:02:21;8.80;;;7.13;;
2850;SDS011;1433;49.976;8.342;2023-02-20T04:04:51;9.30;;;7.23;;
2850;SDS011;1433;49.976;8.342;2023-02-20T04:07:21;9.67;;;7.90;;
2850;SDS011;1433;49.976;8.342;2023-02-20T04:09:50;9.23;;;7.80;;
2850;SDS011;1433;49.976;8.342;2023-02-20T04:12:21;6.83;;;6.03;;
2850;SDS011;1433;49.976;8.342;2023-02-20T04:14:51;8.70;;;7.40;;
2850;SDS011;1433;49.976;8.342;2023-02-20T04:17:24;10.33;;;6.40;;
2850;SDS011;1433;49.976;8.342;2023-02-20T04:19:50;8.23;;;7.33;;
2850;SDS011;1433;49.976;8.342;2023-02-20T04:22:22;9.63;;;7.53;;
2850;SDS011;1433;49.976;8.342;2023-02-20T04:27:21;12.10;;;7.47;;
2850;SDS011;1433;49.976;8.342;2023-02-20T04:29:49;8.83;;;6.90;;
2850;SDS011;1433;49.976;8.342;2023-02-20T04:32:16;9.83;;;8.30;;
2850;SDS011;1433;49.976;8.342;2023-02-20T04:34:43;8.10;;;7.30;;
2850;SDS011;1433;49.976;8.342;2023-02-20T04:37:12;7.87;;;7.07;;
2850;SDS011;1433;49.976;8.342;2023-02-20T04:39:39;9.77;;;7.50;;
2850;SDS011;1433;49.976;8.342;2023-02-20T04:42:05;8.83;;;6.63;;
2850;SDS011;1433;49.976;8.342;2023-02-20T04:44:32;8.20;;;7.30;;
2850;SDS011;1433;49.976;8.342;2023-02-20T04:47:02;9.67;;;7.50;;
2850;SDS011;1433;49.976;8.342;2023-02-20T04:49:30;8.33;;;7.53;;
2850;SDS011;1433;49.976;8.342;2023-02-20T04:51:58;9.33;;;6.97;;
2850;SDS011;1433;49.976;8.342;2023-02-20T04:54:24;9.30;;;7.23;;
2850;SDS011;1433;49.976;8.342;2023-02-20T04:56:51;8.30;;;7.40;;
2850;SDS011;1433;49.976;8.342;2023-02-20T04:59:19;11.23;;;7.57;;
2850;SDS011;1433;49.976;8.342;2023-02-20T05:01:45;11.53;;;7.50;;
2850;SDS011;1433;49.976;8.342;2023-02-20T05:04:14;8.67;;;7.87;;
2850;SDS011;1433;49.976;8.342;2023-02-20T05:06:41;8.03;;;6.80;;
2850;SDS011;1433;49.976;8.342;2023-02-20T05:09:10;10.17;;;6.90;;
2850;SDS011;1433;49.976;8.342;2023-02-20T05:11:36;10.17;;;7.10;;
2850;SDS011;1433;49.976;8.342;2023-02-20T05:14:03;8.03;;;7.23;;
2850;SDS011;1433;49.976;8.342;2023-02-20T05:16:30;8.30;;;7.50;;
2850;SDS011;1433;49.976;8.342;2023-02-20T05:18:56;12.97;;;8.10;;
2850;SDS011;1433;49.976;8.342;2023-02-20T05:21:25;8.60;;;7.80;;
2850;SDS011;1433;49.976;8.342;2023-02-20T05:24:10;20.93;;;8.27;;
2850;SDS011;1433;49.976;8.342;2023-02-20T05:26:37;10.03;;;7.53;;
2850;SDS011;1433;49.976;8.342;2023-02-20T05:29:03;8.03;;;7.00;;
2850;SDS011;1433;49.976;8.342;2023-02-20T05:31:30;8.03;;;7.07;;
2850;SDS011;1433;49.976;8.342;2023-02-20T05:33:56;8.03;;;7.23;;
2850;SDS011;1433;49.976;8.342;2023-02-20T05:36:22;10.93;;;7.43;;
2850;SDS011;1433;49.976;8.342;2023-02-20T05:38:48;11.40;;;7.97;;
2850;SDS011;1433;49.976;8.342;2023-02-20T05:41:15;13.33;;;8.13;;
2850;SDS011;1433;49.976;8.342;2023-02-20T05:43:41;13.17;;;8.57;;
2850;SDS011;1433;49.976;8.342;2023-02-20T05:46:07;12.00;;;9.37;;
2850;SDS011;1433;49.976;8.342;2023-02-20T05:48:33;11.03;;;9.50;;
2850;SDS011;1433;49.976;8.342;2023-02-20T05:50:59;12.10;;;8.33;;
2850;SDS011;1433;49.976;8.342;2023-02-20T05:53:26;11.33;;;8.00;;
2850;SDS011;1433;49.976;8.342;2023-02-20T05:55:54;10.10;;;7.77;;
2850;SDS011;1433;49.976;8.342;2023-02-20T05:58:20;9.07;;;7.63;;
2850;SDS011;1433;49.976;8.342;2023-02-20T06:00:46;13.60;;;7.93;;
2850;SDS011;1433;49.976;8.342;2023-02-20T06:03:13;10.37;;;8.40;;
2850;SDS011;1433;49.976;8.342;2023-02-20T06:05:40;8.57;;;7.73;;
2850;SDS011;1433;49.976;8.342;2023-02-20T06:08:06;13.10;;;8.43;;
2850;SDS011;1433;49.976;8.342;2023-02-20T06:10:32;8.57;;;7.23;;
2850;SDS011;1433;49.976;8.342;2023-02-20T06:12:58;13.63;;;8.53;;
2850;SDS011;1433;49.976;8.342;2023-02-20T06:15:25;7.67;;;6.93;;
2850;SDS011;1433;49.976;8.342;2023-02-20T06:17:51;13.23;;;8.10;;
2850;SDS011;1433;49.976;8.342;2023-02-20T06:20:17;10.87;;;8.20;;
2850;SDS011;1433;49.976;8.342;2023-02-20T06:22:48;12.33;;;7.97;;
2850;SDS011;1433;49.976;8.342;2023-02-20T06:25:15;8.30;;;6.50;;
2850;SDS011;1433;49.976;8.342;2023-02-20T06:27:41;12.70;;;8.97;;
2850;SDS011;1433;49.976;8.342;2023-02-20T06:30:07;8.37;;;6.90;;
2850;SDS011;1433;49.976;8.342;2023-02-20T06:32:34;11.53;;;8.27;;
2850;SDS011;1433;49.976;8.342;2023-02-20T06:35:02;8.93;;;7.90;;
2850;SDS011;1433;49.976;8.342;2023-02-20T06:37:29;9.00;;;7.60;;
2850;SDS011;1433;49.976;8.342;2023-02-20T06:39:55;11.23;;;7.80;;
2850;SDS011;1433;49.976;8.342;2023-02-20T06:42:21;10.40;;;6.80;;
2850;SDS011;1433;49.976;8.342;2023-02-20T06:44:47;19.10;;;8.20;;
2850;SDS011;1433;49.976;8.342;2023-02-20T06:47:13;11.70;;;8.30;;
2850;SDS011;1433;49.976;8.342;2023-02-20T06:49:40;8.93;;;8.07;;
2850;SDS011;1433;49.976;8.342;2023-02-20T06:52:06;12.30;;;8.20;;
2850;SDS011;1433;49.976;8.342;2023-02-20T06:54:32;15.93;;;7.57;;
2850;SDS011;1433;49.976;8.342;2023-02-20T06:56:59;12.40;;;8.40;;
2850;SDS011;1433;49.976;8.342;2023-02-20T06:59:26;12.53;;;8.07;;
2850;SDS011;1433;49.976;8.342;2023-02-20T07:01:53;8.43;;;7.07;;
2850;SDS011;1433;49.976;8.342;2023-02-20T07:04:23;10.13;;;8.30;;
2850;SDS011;1433;49.976;8.342;2023-02-20T07:06:54;9.07;;;8.17;;
2850;SDS011;1433;49.976;8.342;2023-02-20T07:09:21;11.90;;;9.40;;
2850;SDS011;1433;49.976;8.342;2023-02-20T07:11:47;13.57;;;7.83;;
2850;SDS011;1433;49.976;8.342;2023-02-20T07:14:15;11.23;;;8.20;;
2850;SDS011;1433;49.976;8.342;2023-02-20T07:16:41;9.67;;;7.70;;
2850;SDS011;1433;49.976;8.342;2023-02-20T07:19:07;14.73;;;8.47;;
2850;SDS011;1433;49.976;8.342;2023-02-20T07:21:33;15.50;;;8.70;;
2850;SDS011;1433;49.976;8.342;2023-02-20T07:23:59;9.40;;;7.77;;
2850;SDS011;1433;49.976;8.342;2023-02-20T07:26:27;8.90;;;7.43;;
2850;SDS011;1433;49.976;8.342;2023-02-20T07:28:54;8.50;;;7.70;;
2850;SDS011;1433;49.976;8.342;2023-02-20T07:31:27;10.43;;;7.97;;
2850;SDS011;1433;49.976;8.342;2023-02-20T07:33:54;8.80;;;7.63;;
2850;SDS011;1433;49.976;8.342;2023-02-20T07:36:20;11.57;;;8.50;;
2850;SDS011;1433;49.976;8.342;2023-02-20T07:38:53;10.50;;;7.80;;
2850;SDS011;1433;49.976;8.342;2023-02-20T07:41:20;9.07;;;8.17;;
2850;SDS011;1433;49.976;8.342;2023-02-20T07:43:47;10.93;;;7.97;;
2850;SDS011;1433;49.976;8.342;2023-02-20T07:46:13;9.60;;;7.53;;
2850;SDS011;1433;49.976;8.342;2023-02-20T07:48:39;14.53;;;8.30;;
2850;SDS011;1433;49.976;8.342;2023-02-20T07:51:06;9.47;;;7.00;;
2850;SDS011;1433;49.976;8.342;2023-02-20T07:53:32;14.70;;;7.63;;
2850;SDS011;1433;49.976;8.342;2023-02-20T07:55:58;13.67;;;7.80;;
2850;SDS011;1433;49.976;8.342;2023-02-20T07:58:24;8.53;;;7.73;;
2850;SDS011;1433;49.976;8.342;2023-02-20T08:00:51;8.40;;;7.47;;
2850;SDS011;1433;49.976;8.342;2023-02-20T08:03:18;13.17;;;8.10;;
2850;SDS011;1433;49.976;8.342;2023-02-20T08:05:45;9.33;;;8.30;;
2850;SDS011;1433;49.976;8.342;2023-02-20T08:08:11;10.87;;;8.70;;
2850;SDS011;1433;49.976;8.342;2023-02-20T08:10:37;12.60;;;10.70;;
2850;SDS011;1433;49.976;8.342;2023-02-20T08:13:03;16.50;;;11.20;;
2850;SDS011;1433;49.976;8.342;2023-02-20T08:15:29;14.47;;;12.47;;
2850;SDS011;1433;49.976;8.342;2023-02-20T08:17:55;14.03;;;12.27;;
2850;SDS011;1433;49.976;8.342;2023-02-20T08:20:22;15.57;;;12.30;;
2850;SDS011;1433;49.976;8.342;2023-02-20T08:22:48;14.23;;;12.83;;
2850;SDS011;1433;49.976;8.342;2023-02-20T08:25:15;13.90;;;11.90;;
2850;SDS011;1433;49.976;8.342;2023-02-20T08:27:43;12.93;;;11.57;;
2850;SDS011;1433;49.976;8.342;2023-02-20T08:30:14;18.07;;;12.37;;
2850;SDS011;1433;49.976;8.342;2023-02-20T08:32:42;16.13;;;12.47;;
2850;SDS011;1433;49.976;8.342;2023-02-20T08:35:08;13.03;;;11.77;;
2850;SDS011;1433;49.976;8.342;2023-02-20T08:37:34;15.30;;;12.13;;
2850;SDS011;1433;49.976;8.342;2023-02-20T08:40:00;15.57;;;13.90;;
2850;SDS011;1433;49.976;8.342;2023-02-20T08:42:28;20.83;;;14.17;;
2850;SDS011;1433;49.976;8.342;2023-02-20T08:44:54;20.70;;;13.67;;
2850;SDS011;1433;49.976;8.342;2023-02-20T08:47:20;17.00;;;12.43;;
2850;SDS011;1433;49.976;8.342;2023-02-20T08:49:48;16.93;;;13.67;;
2850;SDS011;1433;49.976;8.342;2023-02-20T08:52:14;14.03;;;11.70;;
2850;SDS011;1433;49.976;8.342;2023-02-20T08:54:48;24.03;;;13.40;;
2850;SDS011;1433;49.976;8.342;2023-02-20T08:57:13;15.10;;;11.73;;
2850;SDS011;1433;49.976;8.342;2023-02-20T08:59:41;18.93;;;12.00;;
2850;SDS011;1433;49.976;8.342;2023-02-20T09:02:08;14.50;;;12.40;;
2850;SDS011;1433;49.976;8.342;2023-02-20T09:04:37;12.77;;;10.47;;
2850;SDS011;1433;49.976;8.342;2023-02-20T09:07:03;15.77;;;12.93;;
2850;SDS011;1433;49.976;8.342;2023-02-20T09:09:29;19.30;;;13.63;;
2850;SDS011;1433;49.976;8.342;2023-02-20T09:11:55;18.33;;;12.97;;
2850;SDS011;1433;49.976;8.342;2023-02-20T09:14:22;14.47;;;11.97;;
2850;SDS011;1433;49.976;8.342;2023-02-20T09:16:50;17.80;;;12.77;;
2850;SDS011;1433;49.976;8.342;2023-02-20T09:19:17;16.33;;;11.83;;
2850;SDS011;1433;49.976;8.342;2023-02-20T09:21:46;15.33;;;12.80;;
2850;SDS011;1433;49.976;8.342;2023-02-20T09:24:13;18.73;;;13.10;;
2850;SDS011;1433;49.976;8.342;2023-02-20T09:26:39;15.70;;;13.03;;
2850;SDS011;1433;49.976;8.342;2023-02-20T09:29:05;15.83;;;13.20;;
2850;SDS011;1433;49.976;8.342;2023-02-20T09:31:32;20.47;;;12.77;;
2850;SDS011;1433;49.976;8.342;2023-02-20T09:33:58;17.20;;;14.43;;
2850;SDS011;1433;49.976;8.342;2023-02-20T09:36:25;15.90;;;13.40;;
2850;SDS011;1433;49.976;8.342;2023-02-20T09:38:52;15.90;;;12.83;;
2850;SDS011;1433;49.976;8.342;2023-02-20T09:41:24;16.27;;;13.90;;
2850;SDS011;1433;49.976;8.342;2023-02-20T09:43:56;19.50;;;15.10;;
2850;SDS011;1433;49.976;8.342;2023-02-20T09:46:24;17.97;;;15.40;;
2850;SDS011;1433;49.976;8.342;2023-02-20T09:51:21;15.40;;;13.80;;
2850;SDS011;1433;49.976;8.342;2023-02-20T09:53:54;20.77;;;15.63;;
2850;SDS011;1433;49.976;8.342;2023-02-20T09:56:24;24.10;;;15.47;;
2850;SDS011;1433;49.976;8.342;2023-02-20T09:58:53;19.30;;;14.30;;
2850;SDS011;1433;49.976;8.342;2023-02-20T10:01:25;16.27;;;14.53;;
2850;SDS011;1433;49.976;8.342;2023-02-20T10:03:56;15.30;;;13.57;;
2850;SDS011;1433;49.976;8.342;2023-02-20T10:06:29;14.13;;;12.07;;
2850;SDS011;1433;49.976;8.342;2023-02-20T10:08:57;16.13;;;14.27;;
2850;SDS011;1433;49.976;8.342;2023-02-20T10:19:32;12.57;;;11.03;;
2850;SDS011;1433;49.976;8.342;2023-02-20T10:22:17;19.83;;;11.63;;
2850;SDS011;1433;49.976;8.342;2023-02-20T10:30:23;11.77;;;10.67;;
2850;SDS011;1433;49.976;8.342;2023-02-20T10:32:55;17.63;;;11.60;;
2850;SDS011;1433;49.976;8.342;2023-02-20T10:35:38;11.40;;;9.50;;
2850;SDS011;1433;49.976;8.342;2023-02-20T10:38:09;10.63;;;9.13;;
2850;SDS011;1433;49.976;8.342;2023-02-20T10:40:40;15.60;;;9.17;;
2850;SDS011;1433;49.976;8.342;2023-02-20T10:43:10;14.40;;;10.17;;
2850;SDS011;1433;49.976;8.342;2023-02-20T10:48:30;10.23;;;9.23;;
2850;SDS011;1433;49.976;8.342;2023-02-20T10:51:08;11.87;;;8.60;;
2850;SDS011;1433;49.976;8.342;2023-02-20T10:54:01;10.77;;;9.40;;
2850;SDS011;1433;49.976;8.342;2023-02-20T10:56:39;8.60;;;7.70;;
2850;SDS011;1433;49.976;8.342;2023-02-20T11:01:42;17.63;;;7.83;;
2850;SDS011;1433;49.976;8.342;2023-02-20T11:04:21;13.00;;;8.43;;
2850;SDS011;1433;49.976;8.342;2023-02-20T11:06:54;11.03;;;9.00;;
2850;SDS011;1433;49.976;8.342;2023-02-20T11:09:23;13.60;;;8.00;;
2850;SDS011;1433;49.976;8.342;2023-02-20T11:11:51;10.17;;;7.50;;
2850;SDS011;1433;49.976;8.342;2023-02-20T11:14:39;9.83;;;7.40;;
2850;SDS011;1433;49.976;8.342;2023-02-20T11:17:05;13.93;;;7.83;;
2850;SDS011;1433;49.976;8.342;2023-02-20T11:19:39;9.93;;;8.10;;
2850;SDS011;1433;49.976;8.342;2023-02-20T11:22:08;9.27;;;6.67;;
2850;SDS011;1433;49.976;8.342;2023-02-20T11:24:35;12.53;;;7.93;;
2850;SDS011;1433;49.976;8.342;2023-02-20T11:27:16;13.60;;;8.70;;
2850;SDS011;1433;49.976;8.342;2023-02-20T11:37:46;8.80;;;7.30;;
2850;SDS011;1433;49.976;8.342;2023-02-20T11:40:15;8.37;;;7.20;;
2850;SDS011;1433;49.976;8.342;2023-02-20T11:42:48;9.10;;;5.83;;
2850;SDS011;1433;49.976;8.342;2023-02-20T11:45:15;6.87;;;6.27;;
2850;SDS011;1433;49.976;8.342;2023-02-20T11:47:44;7.60;;;6.77;;
2850;SDS011;1433;49.976;8.342;2023-02-20T11:50:13;7.50;;;6.17;;
2850;SDS011;1433;49.976;8.342;2023-02-20T11:53:03;10.37;;;6.97;;
2850;SDS011;1433;49.976;8.342;2023-02-20T11:55:28;6.47;;;5.70;;
2850;SDS011;1433;49.976;8.342;2023-02-20T11:57:55;7.20;;;6.50;;
2850;SDS011;1433;49.976;8.342;2023-02-20T12:00:23;7.87;;;6.97;;
2850;SDS011;1433;49.976;8.342;2023-02-20T12:05:35;8.10;;;5.33;;
2850;SDS011;1433;49.976;8.342;2023-02-20T12:11:06;7.77;;;5.80;;
2850;SDS011;1433;49.976;8.342;2023-02-20T12:13:33;5.43;;;4.93;;
2850;SDS011;1433;49.976;8.342;2023-02-20T12:21:42;6.87;;;5.57;;
2850;SDS011;1433;49.976;8.342;2023-02-20T12:24:15;8.80;;;6.33;;
2850;SDS011;1433;49.976;8.342;2023-02-20T12:26:58;6.93;;;6.20;;
2850;SDS011;1433;49.976;8.342;2023-02-20T12:32:01;5.60;;;5.10;;
2850;SDS011;1433;49.976;8.342;2023-02-20T12:35:20;8.17;;;5.27;;
2850;SDS011;1433;49.976;8.342;2023-02-20T12:46:13;5.63;;;4.83;;
2850;SDS011;1433;49.976;8.342;2023-02-20T12:49:05;5.57;;;4.13;;
2850;SDS011;1433;49.976;8.342;2023-02-20T12:51:38;9.37;;;5.13;;
2850;SDS011;1433;49.976;8.342;2023-02-20T13:00:31;6.60;;;4.40;;
2850;SDS011;1433;49.976;8.342;2023-02-20T13:05:51;5.40;;;4.90;;
2850;SDS011;1433;49.976;8.342;2023-02-20T13:08:26;5.70;;;4.50;;
2850;SDS011;1433;49.976;8.342;2023-02-20T13:10:57;5.67;;;5.17;;
2850;SDS011;1433;49.976;8.342;2023-02-20T13:16:25;5.73;;;5.23;;
2850;SDS011;1433;49.976;8.342;2023-02-20T13:21:38;9.00;;;5.53;;
2850;SDS011;1433;49.976;8.342;2023-02-20T13:26:49;5.40;;;3.87;;
2850;SDS011;1433;49.976;8.342;2023-02-20T13:29:28;6.23;;;4.70;;
2850;SDS011;1433;49.976;8.342;2023-02-20T13:31:53;8.43;;;4.20;;
2850;SDS011;1433;49.976;8.342;2023-02-20T13:37:00;5.80;;;4.93;;
2850;SDS011;1433;49.976;8.342;2023-02-20T13:44:53;5.60;;;3.77;;
2850;SDS011;1433;49.976;8.342;2023-02-20T13:47:27;9.13;;;4.13;;
2850;SDS011;1433;49.976;8.342;2023-02-20T13:49:59;5.63;;;3.13;;
2850;SDS011;1433;49.976;8.342;2023-02-20T14:02:47;5.90;;;3.37;;
2850;SDS011;1433;49.976;8.342;2023-02-20T14:05:21;3.90;;;3.30;;
2850;SDS011;1433;49.976;8.342;2023-02-20T14:07:45;4.13;;;3.63;;
2850;SDS011;1433;49.976;8.342;2023-02-20T14:12:54;7.23;;;3.90;;
2850;SDS011;1433;49.976;8.342;2023-02-20T14:15:33;3.60;;;3.30;;
2850;SDS011;1433;49.976;8.342;2023-02-20T14:21:13;7.97;;;4.23;;
2850;SDS011;1433;49.976;8.342;2023-02-20T14:23:43;6.93;;;4.00;;
2850;SDS011;1433;49.976;8.342;2023-02-20T14:28:50;7.63;;;4.67;;
2850;SDS011;1433;49.976;8.342;2023-02-20T14:33:56;4.27;;;3.47;;
2850;SDS011;1433;49.976;8.342;2023-02-20T14:42:30;6.50;;;3.97;;
2850;SDS011;1433;49.976;8.342;2023-02-20T14:45:00;6.90;;;4.20;;
2850;SDS011;1433;49.976;8.342;2023-02-20T14:47:29;6.93;;;4.37;;
2850;SDS011;1433;49.976;8.342;2023-02-20T14:50:15;8.43;;;5.03;;
2850;SDS011;1433;49.976;8.342;2023-02-20T14:52:44;17.70;;;3.77;;
2850;SDS011;1433;49.976;8.342;2023-02-20T14:55:15;6.73;;;4.60;;
2850;SDS011;1433;49.976;8.342;2023-02-20T14:57:40;6.10;;;4.00;;
2850;SDS011;1433;49.976;8.342;2023-02-20T15:00:20;8.07;;;4.03;;
2850;SDS011;1433;49.976;8.342;2023-02-20T15:02:45;5.70;;;4.67;;
2850;SDS011;1433;49.976;8.342;2023-02-20T15:05:18;7.30;;;3.70;;
2850;SDS011;1433;49.976;8.342;2023-02-20T15:07:46;4.87;;;3.47;;
2850;SDS011;1433;49.976;8.342;2023-02-20T15:10:32;5.07;;;4.00;;
2850;SDS011;1433;49.976;8.342;2023-02-20T15:15:43;8.10;;;3.83;;
2850;SDS011;1433;49.976;8.342;2023-02-20T15:18:12;6.13;;;3.77;;
2850;SDS011;1433;49.976;8.342;2023-02-20T15:20:43;6.83;;;3.90;;
2850;SDS011;1433;49.976;8.342;2023-02-20T15:23:23;8.63;;;4.33;;
2850;SDS011;1433;49.976;8.342;2023-02-20T15:25:52;9.00;;;3.60;;
2850;SDS011;1433;49.976;8.342;2023-02-20T15:31:05;7.53;;;3.93;;
2850;SDS011;1433;49.976;8.342;2023-02-20T15:33:35;6.83;;;4.00;;
2850;SDS011;1433;49.976;8.342;2023-02-20T15:36:03;3.40;;;3.10;;
2850;SDS011;1433;49.976;8.342;2023-02-20T15:38:32;3.30;;;3.00;;
2850;SDS011;1433;49.976;8.342;2023-02-20T15:41:00;5.77;;;4.03;;
2850;SDS011;1433;49.976;8.342;2023-02-20T15:43:28;5.90;;;4.33;;
2850;SDS011;1433;49.976;8.342;2023-02-20T15:45:54;5.50;;;3.50;;
2850;SDS011;1433;49.976;8.342;2023-02-20T15:48:20;9.00;;;3.80;;
2850;SDS011;1433;49.976;8.342;2023-02-20T15:50:47;4.10;;;3.20;;
2850;SDS011;1433;49.976;8.342;2023-02-20T15:53:19;3.63;;;3.33;;
2850;SDS011;1433;49.976;8.342;2023-02-20T15:55:44;7.63;;;4.27;;
2850;SDS011;1433;49.976;8.342;2023-02-20T15:58:19;7.77;;;3.40;;
2850;SDS011;1433;49.976;8.342;2023-02-20T16:03:51;5.00;;;3.60;;
2850;SDS011;1433;49.976;8.342;2023-02-20T16:06:17;5.67;;;3.83;;
2850;SDS011;1433;49.976;8.342;2023-02-20T16:08:45;6.43;;;3.40;;
2850;SDS011;1433;49.976;8.342;2023-02-20T16:11:11;4.33;;;3.80;;
2850;SDS011;1433;49.976;8.342;2023-02-20T16:13:38;6.60;;;3.80;;
2850;SDS011;1433;49.976;8.342;2023-02-20T16:16:20;6.90;;;3.70;;
2850;SDS011;1433;49.976;8.342;2023-02-20T16:18:48;8.03;;;3.87;;
2850;SDS011;1433;49.976;8.342;2023-02-20T16:21:19;3.07;;;2.87;;
2850;SDS011;1433;49.976;8.342;2023-02-20T16:23:46;6.97;;;3.80;;
2850;SDS011;1433;49.976;8.342;2023-02-20T16:26:15;4.43;;;4.03;;
2850;SDS011;1433;49.976;8.342;2023-02-20T16:28:42;3.83;;;3.20;;
2850;SDS011;1433;49.976;8.342;2023-02-20T16:31:11;4.23;;;3.23;;
2850;SDS011;1433;49.976;8.342;2023-02-20T16:33:37;4.17;;;3.77;;
2850;SDS011;1433;49.976;8.342;2023-02-20T16:36:03;8.00;;;4.23;;
2850;SDS011;1433;49.976;8.342;2023-02-20T16:38:30;4.40;;;2.80;;
2850;SDS011;1433;49.976;8.342;2023-02-20T16:40:56;5.17;;;3.60;;
2850;SDS011;1433;49.976;8.342;2023-02-20T16:43:24;4.60;;;2.87;;
2850;SDS011;1433;49.976;8.342;2023-02-20T16:45:50;5.57;;;3.40;;
2850;SDS011;1433;49.976;8.342;2023-02-20T16:48:18;7.70;;;3.00;;
2850;SDS011;1433;49.976;8.342;2023-02-20T16:50:49;4.10;;;3.60;;
2850;SDS011;1433;49.976;8.342;2023-02-20T16:53:18;5.67;;;4.07;;
2850;SDS011;1433;49.976;8.342;2023-02-20T16:55:45;7.23;;;4.27;;
2850;SDS011;1433;49.976;8.342;2023-02-20T16:58:12;5.33;;;2.93;;
2850;SDS011;1433;49.976;8.342;2023-02-20T17:00:39;7.03;;;3.97;;
2850;SDS011;1433;49.976;8.342;2023-02-20T17:03:07;7.73;;;4.83;;
2850;SDS011;1433;49.976;8.342;2023-02-20T17:05:35;6.77;;;3.60;;
2850;SDS011;1433;49.976;8.342;2023-02-20T17:08:02;6.77;;;3.80;;
2850;SDS011;1433;49.976;8.342;2023-02-20T17:10:29;5.13;;;4.07;;
2850;SDS011;1433;49.976;8.342;2023-02-20T17:12:56;4.27;;;3.73;;
2850;SDS011;1433;49.976;8.342;2023-02-20T17:15:23;5.70;;;4.00;;
2850;SDS011;1433;49.976;8.342;2023-02-20T17:17:50;5.90;;;3.50;;
2850;SDS011;1433;49.976;8.342;2023-02-20T17:20:19;4.20;;;3.63;;
2850;SDS011;1433;49.976;8.342;2023-02-20T17:22:47;7.47;;;3.97;;
2850;SDS011;1433;49.976;8.342;2023-02-20T17:25:20;5.00;;;4.40;;
2850;SDS011;1433;49.976;8.342;2023-02-20T17:27:49;6.57;;;4.20;;
2850;SDS011;1433;49.976;8.342;2023-02-20T17:30:15;7.97;;;4.40;;
2850;SDS011;1433;49.976;8.342;2023-02-20T17:32:44;8.27;;;3.90;;
2850;SDS011;1433;49.976;8.342;2023-02-20T17:35:10;8.77;;;5.27;;
2850;SDS011;1433;49.976;8.342;2023-02-20T17:37:36;4.93;;;4.27;;
2850;SDS011;1433;49.976;8.342;2023-02-20T17:40:02;4.40;;;4.00;;
2850;SDS011;1433;49.976;8.342;2023-02-20T17:42:29;8.70;;;5.40;;
2850;SDS011;1433;49.976;8.342;2023-02-20T17:44:56;6.43;;;5.27;;
2850;SDS011;1433;49.976;8.342;2023-02-20T17:47:22;7.97;;;5.57;;
2850;SDS011;1433;49.976;8.342;2023-02-20T17:49:49;8.57;;;5.20;;